Time;durP1;ratioP1;P1;durP2;ratioP2;P2;SDS_P1;SDS_P2;PMS_P1;PMS_P2;Temp;Humidity;BMP_temperature;BMP_pressure;BME280_temperature;BME280_humidity;BME280_pressure;Samples;Min_cycle;Max_cycle;Signal;HPM_P1;HPM_P2
2023/02/13 00:00:34;;;;;;;0.10;0.10;;;8.60;99.90;;;;;;6201945;23;20008;-93
2023/02/13 00:03:00;;;;;;;0.10;0.10;;;;;;;;;;6202119;23;20068;-94
2023/02/13 00:05:26;;;;;;;0.10;0.10;;;8.60;99.90;;;;;;6199996;23;20040;-93
2023/02/13 00:07:52;;;;;;;0.10;0.10;;;;;;;;;;6203506;23;20000;-92
2023/02/13 00:10:17;;;;;;;0.08;0.08;;;8.80;99.90;;;;;;6203775;23;20028;-93
2023/02/13 00:12:43;;;;;;;0.08;0.08;;;8.80;99.90;;;;;;6201591;23;20001;-94
2023/02/13 00:15:09;;;;;;;0.10;0.10;;;8.80;99.90;;;;;;6202111;23;19996;-94
2023/02/13 00:17:35;;;;;;;0.10;0.10;;;8.80;99.90;;;;;;6201557;23;20024;-94
2023/02/13 00:20:01;;;;;;;0.00;0.00;;;8.70;99.90;;;;;;6203542;23;20246;-93
2023/02/13 00:22:26;;;;;;;0.00;0.00;;;8.70;99.90;;;;;;6202874;23;20001;-94
2023/02/13 00:24:52;;;;;;;0.10;0.10;;;8.80;99.90;;;;;;6202569;23;20012;-95
2023/02/13 00:27:18;;;;;;;0.10;0.10;;;8.60;99.90;;;;;;6203663;23;20000;-93
2023/02/13 00:29:43;;;;;;;0.00;0.00;;;8.60;99.90;;;;;;6202696;23;20008;-94
2023/02/13 00:32:09;;;;;;;0.10;0.10;;;8.80;99.90;;;;;;6199534;23;20442;-93
2023/02/13 00:34:35;;;;;;;0.10;0.10;;;;;;;;;;6201971;23;20001;-94
2023/02/13 00:37:01;;;;;;;0.00;0.00;;;8.60;99.90;;;;;;6203621;23;20012;-94
2023/02/13 00:39:26;;;;;;;0.10;0.10;;;8.70;99.90;;;;;;6200263;23;20009;-95
2023/02/13 00:41:52;;;;;;;0.10;0.10;;;8.40;99.90;;;;;;6201951;23;20005;-94
2023/02/13 00:44:17;;;;;;;0.10;0.10;;;8.70;99.90;;;;;;6202042;23;20004;-93
2023/02/13 00:46:43;;;;;;;0.00;0.00;;;;;;;;;;6224375;23;20004;-94
2023/02/13 00:49:09;;;;;;;0.10;0.10;;;;;;;;;;6227586;23;20020;-95
2023/02/13 00:51:35;;;;;;;0.10;0.10;;;;;;;;;;6223828;23;20005;-92
2023/02/13 00:54:01;;;;;;;0.10;0.10;;;;;;;;;;6227564;23;20196;-95
2023/02/13 00:56:27;;;;;;;0.10;0.10;;;;;;;;;;6227396;23;20005;-94
2023/02/13 00:58:53;;;;;;;0.10;0.10;;;;;;;;;;6227040;23;20008;-95
2023/02/13 01:01:19;;;;;;;0.10;0.10;;;;;;;;;;6223174;23;20001;-94
2023/02/13 01:03:45;;;;;;;0.10;0.10;;;;;;;;;;6226862;23;20011;-94
2023/02/13 01:06:11;;;;;;;0.10;0.10;;;;;;;;;;6203928;23;20004;-94
2023/02/13 01:08:40;;;;;;;0.10;0.10;;;8.90;99.90;;;;;;6205758;23;20084;-93
2023/02/13 01:11:06;;;;;;;0.10;0.10;;;;;;;;;;6205145;23;20110;-94
2023/02/13 01:13:32;;;;;;;0.10;0.10;;;;;;;;;;6202284;23;20069;-94
2023/02/13 01:15:58;;;;;;;0.10;0.10;;;;;;;;;;6201538;23;20009;-95
2023/02/13 01:18:24;;;;;;;0.10;0.10;;;9.00;99.90;;;;;;6206728;23;20004;-94
2023/02/13 01:21:02;;;;;;;0.10;0.10;;;8.80;99.90;;;;;;6205052;23;20021;-95
2023/02/13 01:23:32;;;;;;;0.10;0.10;;;8.90;99.90;;;;;;6204582;23;20024;-94
2023/02/13 01:25:59;;;;;;;0.10;0.10;;;;;;;;;;6203970;23;20005;-94
2023/02/13 01:28:24;;;;;;;0.10;0.10;;;8.80;99.90;;;;;;6203047;23;20033;-94
2023/02/13 01:30:55;;;;;;;0.10;0.10;;;8.90;99.90;;;;;;6212855;23;20005;-95
2023/02/13 01:33:22;;;;;;;0.10;0.10;;;8.90;99.90;;;;;;6208383;23;19985;-95
2023/02/13 01:35:47;;;;;;;0.10;0.10;;;;;;;;;;6206793;23;20008;-94
2023/02/13 01:38:13;;;;;;;0.10;0.10;;;8.90;99.90;;;;;;6208943;23;20009;-93
2023/02/13 01:40:48;;;;;;;0.10;0.10;;;8.80;99.90;;;;;;6206549;23;20005;-94
2023/02/13 01:43:14;;;;;;;0.10;0.10;;;;;;;;;;6207415;23;20425;-94
2023/02/13 01:45:41;;;;;;;0.10;0.10;;;8.80;99.90;;;;;;6230216;23;20088;-93
2023/02/13 01:48:11;;;;;;;0.10;0.10;;;9.20;99.90;;;;;;6204615;23;20001;-94
2023/02/13 01:50:37;;;;;;;0.10;0.10;;;;;;;;;;6204871;23;20001;-94
2023/02/13 01:53:18;;;;;;;0.10;0.10;;;8.70;99.90;;;;;;6208184;23;20028;-94
2023/02/13 01:55:52;;;;;;;0.10;0.10;;;8.70;99.90;;;;;;6206227;23;20007;-94
2023/02/13 01:58:21;;;;;;;0.10;0.10;;;8.60;99.90;;;;;;6206570;23;20011;-93
2023/02/13 02:00:50;;;;;;;0.10;0.10;;;;;;;;;;6204173;23;20004;-95
2023/02/13 02:03:28;;;;;;;0.10;0.10;;;8.60;99.90;;;;;;6233014;23;20011;-93
2023/02/13 02:05:56;;;;;;;0.10;0.10;;;8.70;99.90;;;;;;6205198;23;20063;-93
2023/02/13 02:08:23;;;;;;;0.10;0.10;;;8.70;99.90;;;;;;6206887;23;20001;-94
2023/02/13 02:10:49;;;;;;;0.10;0.10;;;;;;;;;;6206623;23;20051;-95
2023/02/13 02:13:19;;;;;;;0.10;0.10;;;8.60;99.90;;;;;;6206532;23;20001;-94
2023/02/13 02:15:45;;;;;;;0.00;0.00;;;;;;;;;;6206322;23;20004;-94
2023/02/13 02:18:16;;;;;;;0.10;0.10;;;8.70;99.90;;;;;;6208464;23;20001;-94
2023/02/13 02:21:07;;;;;;;0.08;0.08;;;8.70;99.90;;;;;;6208412;23;20013;-94
2023/02/13 02:24:01;;;;;;;0.10;0.10;;;8.60;99.90;;;;;;6192446;23;20001;-95
2023/02/13 02:27:00;;;;;;;0.10;0.10;;;8.70;99.90;;;;;;6206525;23;20077;-94
2023/02/13 02:29:43;;;;;;;0.10;0.10;;;8.70;99.90;;;;;;6207941;23;20001;-94
2023/02/13 02:32:39;;;;;;;0.10;0.10;;;8.70;99.90;;;;;;6206255;23;20227;-94
2023/02/13 02:35:40;;;;;;;0.10;0.10;;;8.70;99.90;;;;;;6207443;23;20001;-95
2023/02/13 02:38:24;;;;;;;0.10;0.10;;;8.60;99.90;;;;;;6207651;23;20012;-94
2023/02/13 02:41:00;;;;;;;0.10;0.10;;;8.20;99.90;;;;;;6207980;23;20008;-95
2023/02/13 02:43:54;;;;;;;0.10;0.10;;;8.60;99.90;;;;;;6206430;23;20070;-95
2023/02/13 02:49:57;;;;;;;0.10;0.10;;;8.60;99.90;;;;;;6207575;23;20282;-93
2023/02/13 02:52:38;;;;;;;0.10;0.10;;;8.30;99.90;;;;;;6232006;23;20014;-94
2023/02/13 02:55:19;;;;;;;0.10;0.10;;;8.40;99.90;;;;;;6201589;23;20001;-95
2023/02/13 03:06:19;;;;;;;0.10;0.10;;;8.40;99.90;;;;;;6233835;23;20032;-94
2023/02/13 03:14:26;;;;;;;0.10;0.10;;;8.50;99.90;;;;;;6232350;23;20353;-94
2023/02/13 03:23:13;;;;;;;0.10;0.10;;;8.50;99.90;;;;;;6233765;23;20039;-94
2023/02/13 03:26:00;;;;;;;0.10;0.10;;;8.50;99.90;;;;;;6205754;23;20004;-94
2023/02/13 03:31:52;;;;;;;0.10;0.10;;;8.50;99.90;;;;;;6232864;23;20036;-94
2023/02/13 03:34:24;;;;;;;0.10;0.10;;;8.40;99.90;;;;;;6232185;23;20060;-94
2023/02/13 03:40:14;;;;;;;0.10;0.10;;;8.40;99.90;;;;;;6080231;23;20058;-94
2023/02/13 03:42:39;;;;;;;0.10;0.10;;;;;;;;;;6083368;23;20091;-93
2023/02/13 03:47:59;;;;;;;0.10;0.10;;;7.60;99.90;;;;;;6232429;23;20023;-94
2023/02/13 03:50:26;;;;;;;0.10;0.10;;;8.30;99.90;;;;;;6202693;23;20004;-93
2023/02/13 03:53:07;;;;;;;0.08;0.08;;;8.20;99.90;;;;;;6206290;23;20004;-94
2023/02/13 04:01:16;;;;;;;0.10;0.10;;;8.40;99.90;;;;;;6230412;23;20247;-94
2023/02/13 04:03:49;;;;;;;0.10;0.10;;;8.30;99.90;;;;;;6204854;23;20008;-94
2023/02/13 04:06:26;;;;;;;0.10;0.10;;;8.30;99.90;;;;;;6203913;23;20035;-93
2023/02/13 04:08:52;;;;;;;0.10;0.10;;;;;;;;;;6203226;23;20020;-92
2023/02/13 04:11:26;;;;;;;0.10;0.10;;;8.40;99.90;;;;;;6203469;23;20001;-94
2023/02/13 04:13:57;;;;;;;0.10;0.10;;;8.30;99.90;;;;;;6205170;23;20008;-94
2023/02/13 04:16:39;;;;;;;0.10;0.10;;;8.50;99.90;;;;;;6203643;23;20005;-94
2023/02/13 04:19:06;;;;;;;0.10;0.10;;;8.40;99.90;;;;;;6203322;23;20437;-94
2023/02/13 04:21:37;;;;;;;0.10;0.10;;;8.50;99.90;;;;;;6198842;23;20031;-93
2023/02/13 04:24:03;;;;;;;0.10;0.10;;;;;;;;;;6203691;23;20087;-94
2023/02/13 04:26:41;;;;;;;0.10;0.10;;;8.50;99.90;;;;;;6204266;23;20009;-95
2023/02/13 04:29:07;;;;;;;0.00;0.00;;;;;;;;;;6200767;23;20001;-94
2023/02/13 04:31:33;;;;;;;0.10;0.10;;;;;;;;;;6201722;23;20008;-94
2023/02/13 04:34:00;;;;;;;0.10;0.10;;;;;;;;;;6202865;23;20001;-94
2023/02/13 04:36:26;;;;;;;0.10;0.10;;;;;;;;;;6203514;23;20009;-94
2023/02/13 04:38:51;;;;;;;0.10;0.10;;;8.60;99.90;;;;;;6220741;23;20062;-94
2023/02/13 04:41:17;;;;;;;0.10;0.10;;;;;;;;;;6203254;23;20056;-94
2023/02/13 04:43:43;;;;;;;0.10;0.10;;;8.60;99.90;;;;;;6224679;23;20012;-95
2023/02/13 04:46:09;;;;;;;0.00;0.00;;;;;;;;;;6202926;23;20060;-94
2023/02/13 04:48:35;;;;;;;0.10;0.10;;;;;;;;;;6204322;23;20039;-94
2023/02/13 04:51:00;;;;;;;0.10;0.10;;;8.60;99.90;;;;;;6199541;23;20039;-94
2023/02/13 04:53:26;;;;;;;0.10;0.10;;;;;;;;;;6200994;23;20438;-94
2023/02/13 04:55:52;;;;;;;0.03;0.03;;;;;;;;;;6201386;23;20036;-94
2023/02/13 04:58:18;;;;;;;0.10;0.10;;;8.60;99.90;;;;;;6223824;23;20023;-94
2023/02/13 05:00:44;;;;;;;0.10;0.10;;;;;;;;;;6225729;23;20036;-95
2023/02/13 05:03:12;;;;;;;0.10;0.10;;;8.60;99.90;;;;;;6226639;23;20011;-93
2023/02/13 05:05:38;;;;;;;0.10;0.10;;;;;;;;;;6202624;23;20004;-93
2023/02/13 05:08:05;;;;;;;0.00;0.00;;;8.60;99.90;;;;;;6202374;23;20001;-93
2023/02/13 05:10:31;;;;;;;0.10;0.10;;;;;;;;;;6202117;23;20024;-93
2023/02/13 05:12:56;;;;;;;0.10;0.10;;;8.60;99.90;;;;;;6203951;23;19997;-93
2023/02/13 05:15:22;;;;;;;0.10;0.10;;;8.50;99.90;;;;;;6199041;23;20028;-94
2023/02/13 05:17:48;;;;;;;0.10;0.10;;;;;;;;;;6203103;23;19996;-94
2023/02/13 05:20:15;;;;;;;0.10;0.10;;;;;;;;;;6202473;23;20095;-94
2023/02/13 05:25:33;;;;;;;0.10;0.10;;;;;;;;;;6224122;23;20035;-93
2023/02/13 05:27:59;;;;;;;0.08;0.08;;;;;;;;;;6197604;23;20108;-93
2023/02/13 05:30:25;;;;;;;0.05;0.05;;;;;;;;;;6197391;23;20005;-93
2023/02/13 05:32:51;;;;;;;0.10;0.10;;;;;;;;;;6195870;23;20016;-93
2023/02/13 05:35:18;;;;;;;0.10;0.10;;;8.50;99.90;;;;;;6198431;23;20004;-93
2023/02/13 05:37:44;;;;;;;0.10;0.10;;;;;;;;;;6201288;23;20000;-93
2023/02/13 05:40:10;;;;;;;0.10;0.10;;;8.50;99.90;;;;;;6201022;23;20040;-93
2023/02/13 05:42:36;;;;;;;0.10;0.10;;;;;;;;;;6201700;23;20068;-93
2023/02/13 05:45:02;;;;;;;0.10;0.10;;;;;;;;;;6226391;23;20013;-94
2023/02/13 05:47:28;;;;;;;0.10;0.10;;;;;;;;;;6224472;23;20481;-94
2023/02/13 05:49:54;;;;;;;0.10;0.10;;;8.40;99.90;;;;;;6223210;23;20008;-94
2023/02/13 05:52:19;;;;;;;0.10;0.10;;;8.40;99.90;;;;;;6201009;23;20004;-93
2023/02/13 05:54:45;;;;;;;0.10;0.10;;;;;;;;;;6197092;23;20016;-94
2023/02/13 05:57:11;;;;;;;0.10;0.10;;;;;;;;;;6201090;23;20389;-94
2023/02/13 05:59:37;;;;;;;0.10;0.10;;;;;;;;;;6202134;23;20004;-93
2023/02/13 06:02:03;;;;;;;0.10;0.10;;;;;;;;;;6212449;23;20012;-94
2023/02/13 06:04:29;;;;;;;0.10;0.10;;;;;;;;;;6203841;23;20027;-94
2023/02/13 06:06:55;;;;;;;0.10;0.10;;;;;;;;;;6203342;23;20000;-94
2023/02/13 06:09:21;;;;;;;0.10;0.10;;;;;;;;;;6202584;23;20032;-94
2023/02/13 06:11:46;;;;;;;0.10;0.10;;;;;;;;;;6207013;23;20059;-94
2023/02/13 06:14:13;;;;;;;0.10;0.10;;;8.40;99.90;;;;;;6206382;23;20004;-93
2023/02/13 06:16:39;;;;;;;0.10;0.10;;;;;;;;;;6207196;23;20346;-93
2023/02/13 06:19:05;;;;;;;0.10;0.10;;;8.40;99.90;;;;;;6205920;23;20020;-93
2023/02/13 06:21:32;;;;;;;0.10;0.10;;;8.40;99.90;;;;;;6206318;23;20011;-94
2023/02/13 06:24:04;;;;;;;0.10;0.10;;;8.40;99.90;;;;;;6205335;23;20209;-94
2023/02/13 06:26:30;;;;;;;0.10;0.10;;;;;;;;;;6206694;23;20028;-94
2023/02/13 06:28:56;;;;;;;0.10;0.10;;;;;;;;;;6203996;23;20000;-93
2023/02/13 06:31:22;;;;;;;0.10;0.10;;;;;;;;;;6206025;23;20023;-94
2023/02/13 06:33:47;;;;;;;0.10;0.10;;;8.40;99.90;;;;;;6208150;23;20005;-93
2023/02/13 06:36:13;;;;;;;0.10;0.10;;;;;;;;;;6208208;23;19995;-94
2023/02/13 06:38:39;;;;;;;0.10;0.10;;;;;;;;;;6208009;23;20323;-93
2023/02/13 06:41:05;;;;;;;0.10;0.10;;;8.30;99.90;;;;;;6208259;23;20008;-94
2023/02/13 06:43:31;;;;;;;0.10;0.10;;;8.30;99.90;;;;;;6208896;23;20004;-95
2023/02/13 06:45:57;;;;;;;0.10;0.10;;;8.20;99.90;;;;;;6208575;23;20040;-94
2023/02/13 06:48:22;;;;;;;0.10;0.10;;;;;;;;;;6207872;23;20016;-92
2023/02/13 06:50:50;;;;;;;0.10;0.10;;;;;;;;;;6208202;23;20438;-94
2023/02/13 06:53:16;;;;;;;0.10;0.10;;;;;;;;;;6232520;23;20005;-93
2023/02/13 06:55:42;;;;;;;0.10;0.10;;;;;;;;;;6208273;23;20008;-94
2023/02/13 06:58:08;;;;;;;0.10;0.10;;;;;;;;;;6208213;23;20012;-94
2023/02/13 07:00:36;;;;;;;0.10;0.10;;;;;;;;;;6208401;23;20345;-94
2023/02/13 07:03:04;;;;;;;0.10;0.10;;;8.20;99.90;;;;;;6233619;23;20015;-93
2023/02/13 07:05:30;;;;;;;0.10;0.10;;;;;;;;;;6208120;23;20004;-93
2023/02/13 07:07:55;;;;;;;0.10;0.10;;;8.20;99.90;;;;;;6207586;23;20068;-93
2023/02/13 07:10:21;;;;;;;0.10;0.10;;;;;;;;;;6208286;23;20024;-94
2023/02/13 07:12:47;;;;;;;0.10;0.10;;;;;;;;;;6234027;23;20004;-94
2023/02/13 07:15:13;;;;;;;0.10;0.10;;;;;;;;;;6209990;23;20093;-93
2023/02/13 07:17:38;;;;;;;0.00;0.00;;;8.30;99.90;;;;;;6211113;23;20008;-94
2023/02/13 07:20:05;;;;;;;0.10;0.10;;;8.30;99.90;;;;;;6208940;23;20330;-93
2023/02/13 07:22:31;;;;;;;0.10;0.10;;;8.30;99.90;;;;;;6208300;23;20005;-94
2023/02/13 07:24:57;;;;;;;0.10;0.10;;;8.20;99.90;;;;;;6209739;23;20043;-93
2023/02/13 07:27:23;;;;;;;0.10;0.10;;;8.50;99.90;;;;;;6209770;23;20015;-93
2023/02/13 07:29:48;;;;;;;0.10;0.10;;;10.10;99.90;;;;;;6207862;23;20040;-94
2023/02/13 07:32:14;;;;;;;0.10;0.10;;;8.30;99.90;;;;;;6209939;23;20201;-94
2023/02/13 07:34:40;;;;;;;0.10;0.10;;;8.30;99.90;;;;;;6210917;23;19997;-94
2023/02/13 07:37:06;;;;;;;0.10;0.10;;;;;;;;;;6213407;23;20064;-95
2023/02/13 07:39:32;;;;;;;0.10;0.10;;;;;;;;;;6210291;23;19993;-95
2023/02/13 07:41:58;;;;;;;0.10;0.10;;;;;;;;;;6209403;23;20057;-94
2023/02/13 07:44:23;;;;;;;0.10;0.10;;;8.50;99.90;;;;;;6209536;23;20009;-95
2023/02/13 07:46:49;;;;;;;0.10;0.10;;;;;;;;;;6209576;23;20068;-94
2023/02/13 07:49:15;;;;;;;0.10;0.10;;;8.60;99.90;;;;;;6208832;23;19997;-94
2023/02/13 07:51:41;;;;;;;0.10;0.10;;;;;;;;;;6209146;23;20000;-94
2023/02/13 07:54:07;;;;;;;0.10;0.10;;;;;;;;;;6208954;23;20000;-94
2023/02/13 07:56:32;;;;;;;0.10;0.10;;;;;;;;;;6209878;23;20024;-94
2023/02/13 07:58:58;;;;;;;0.10;0.10;;;;;;;;;;6209234;23;20016;-93
2023/02/13 08:01:24;;;;;;;0.10;0.10;;;8.70;99.90;;;;;;6209179;23;20007;-94
2023/02/13 08:03:50;;;;;;;0.10;0.10;;;8.70;99.90;;;;;;6209045;23;20000;-94
2023/02/13 08:06:18;;;;;;;0.10;0.10;;;8.60;99.90;;;;;;6233905;23;20550;-95
2023/02/13 08:08:44;;;;;;;0.10;0.10;;;;;;;;;;6204847;23;20007;-94
2023/02/13 08:14:17;;;;;;;0.10;0.10;;;;;;;;;;6233456;23;20015;-93
2023/02/13 08:16:43;;;;;;;0.10;0.10;;;;;;;;;;6208028;23;20328;-94
2023/02/13 08:19:09;;;;;;;0.10;0.10;;;;;;;;;;6207872;23;20039;-94
2023/02/13 08:21:37;;;;;;;0.10;0.10;;;;;;;;;;6209245;23;20000;-93
2023/02/13 08:24:03;;;;;;;0.03;0.03;;;;;;;;;;6208802;23;20005;-94
2023/02/13 08:26:30;;;;;;;0.10;0.10;;;8.90;99.90;;;;;;6209362;23;20008;-93
2023/02/13 08:28:56;;;;;;;0.10;0.10;;;10.90;99.90;;;;;;6205240;23;20000;-94
2023/02/13 08:31:22;;;;;;;0.10;0.10;;;;;;;;;;6196330;23;20084;-93
2023/02/13 08:33:48;;;;;;;0.03;0.03;;;;;;;;;;6198812;23;20063;-94
2023/02/13 08:36:14;;;;;;;0.10;0.10;;;;;;;;;;6227614;23;20349;-95
2023/02/13 08:38:40;;;;;;;0.10;0.10;;;;;;;;;;6225919;23;20000;-94
2023/02/13 08:41:06;;;;;;;0.10;0.10;;;;;;;;;;6228259;23;20035;-94
2023/02/13 08:43:32;;;;;;;0.10;0.10;;;;;;;;;;6225091;23;20019;-94
2023/02/13 08:45:59;;;;;;;0.10;0.10;;;9.10;99.90;;;;;;6202072;23;20017;-94
2023/02/13 08:48:25;;;;;;;0.10;0.10;;;;;;;;;;6202522;23;20004;-94
2023/02/13 08:50:51;;;;;;;0.00;0.00;;;;;;;;;;6204499;23;20005;-93
2023/02/13 08:53:17;;;;;;;0.00;0.00;;;;;;;;;;6203566;23;20047;-92
2023/02/13 08:55:43;;;;;;;0.10;0.10;;;;;;;;;;6204464;23;20039;-94
2023/02/13 08:58:08;;;;;;;0.00;0.00;;;;;;;;;;6203351;23;20007;-94
2023/02/13 09:00:34;;;;;;;0.00;0.00;;;9.30;99.90;;;;;;6206102;23;20461;-94
2023/02/13 09:03:01;;;;;;;0.00;0.00;;;9.30;99.90;;;;;;6203701;23;20434;-92
2023/02/13 09:05:27;;;;;;;0.05;0.05;;;;;;;;;;6204082;23;20004;-94
2023/02/13 09:07:53;;;;;;;0.08;0.08;;;;;;;;;;6203078;23;20000;-93
2023/02/13 09:10:19;;;;;;;0.10;0.10;;;;;;;;;;6203445;23;20057;-93
2023/02/13 09:12:51;;;;;;;0.10;0.10;;;9.40;99.90;;;;;;6229213;23;20011;-92
2023/02/13 09:15:17;;;;;;;0.05;0.05;;;;;;;;;;6202560;23;20001;-93
2023/02/13 09:17:43;;;;;;;0.00;0.00;;;;;;;;;;6203397;23;20088;-94
2023/02/13 09:20:11;;;;;;;0.10;0.10;;;9.50;99.90;;;;;;6224337;23;20059;-94
2023/02/13 09:22:37;;;;;;;0.10;0.10;;;;;;;;;;6202864;23;20004;-94
2023/02/13 09:25:03;;;;;;;0.05;0.05;;;;;;;;;;6204099;23;20017;-93
2023/02/13 09:27:29;;;;;;;0.10;0.10;;;;;;;;;;6199696;23;20009;-94
2023/02/13 09:29:55;;;;;;;0.00;0.00;;;;;;;;;;6203113;23;19996;-94
2023/02/13 09:32:21;;;;;;;0.10;0.10;;;;;;;;;;6229650;23;20461;-93
2023/02/13 09:34:47;;;;;;;0.00;0.00;;;;;;;;;;6224634;23;20072;-93
2023/02/13 09:37:13;;;;;;;0.00;0.00;;;;;;;;;;6227357;23;20007;-93
2023/02/13 09:39:39;;;;;;;0.00;0.00;;;;;;;;;;6227432;23;20005;-94
2023/02/13 09:42:25;;;;;;;0.00;0.00;;;10.00;99.90;;;;;;6225913;23;20007;-93
2023/02/13 09:44:54;;;;;;;0.00;0.00;;;10.00;99.90;;;;;;6204224;23;20071;-93
2023/02/13 09:47:20;;;;;;;0.10;0.10;;;;;;;;;;6202781;23;20012;-94
2023/02/13 09:49:51;;;;;;;0.10;0.10;;;10.00;99.90;;;;;;6204485;23;20012;-94
2023/02/13 09:52:17;;;;;;;0.00;0.00;;;;;;;;;;6204343;23;20020;-94
2023/02/13 09:54:43;;;;;;;0.00;0.00;;;;;;;;;;6204086;23;20005;-92
2023/02/13 09:57:33;;;;;;;0.00;0.00;;;10.00;99.90;;;;;;6203971;23;20004;-94
2023/02/13 10:00:18;;;;;;;0.00;0.00;;;10.00;99.90;;;;;;6204942;23;20004;-92
2023/02/13 10:03:00;;;;;;;0.00;0.00;;;10.10;99.90;;;;;;6203805;23;20285;-94
2023/02/13 10:05:36;;;;;;;0.10;0.10;;;10.20;99.90;;;;;;6205122;23;20005;-93
2023/02/13 10:08:25;;;;;;;0.00;0.00;;;10.30;99.90;;;;;;6205549;23;19996;-94
2023/02/13 10:11:26;;;;;;;0.00;0.00;;;10.30;99.90;;;;;;6203244;23;20344;-93
2023/02/13 10:13:54;;;;;;;0.00;0.00;;;10.30;99.90;;;;;;6206736;23;20012;-94
2023/02/13 10:16:24;;;;;;;0.00;0.00;;;10.20;99.90;;;;;;6205345;23;20001;-93
2023/02/13 10:19:01;;;;;;;0.00;0.00;;;10.30;99.90;;;;;;6205994;23;20013;-94
2023/02/13 10:21:34;;;;;;;0.00;0.00;;;10.40;99.90;;;;;;6207759;23;20005;-94
2023/02/13 10:24:16;;;;;;;0.00;0.00;;;10.50;99.90;;;;;;6206536;23;20005;-94
2023/02/13 10:26:45;;;;;;;0.00;0.00;;;10.50;99.90;;;;;;6208289;23;20005;-94
2023/02/13 10:32:15;;;;;;;0.00;0.00;;;10.60;99.90;;;;;;6230119;23;20011;-94
2023/02/13 10:34:45;;;;;;;0.00;0.00;;;10.60;99.90;;;;;;6207009;23;20080;-95
2023/02/13 10:37:19;;;;;;;0.10;0.10;;;10.70;99.90;;;;;;6204932;23;20004;-94
2023/02/13 10:39:48;;;;;;;0.00;0.00;;;10.70;99.90;;;;;;6206609;23;20000;-95
2023/02/13 10:42:24;;;;;;;0.00;0.00;;;10.80;99.90;;;;;;6205893;23;20035;-94
2023/02/13 10:45:28;;;;;;;0.00;0.00;;;10.20;99.90;;;;;;6205946;23;20389;-94
2023/02/13 10:48:19;;;;;;;0.00;0.00;;;10.90;99.90;;;;;;6205543;23;20008;-94
2023/02/13 10:51:04;;;;;;;0.00;0.00;;;10.90;99.90;;;;;;6207623;23;20023;-94
2023/02/13 10:53:58;;;;;;;0.00;0.00;;;10.90;99.90;;;;;;6207044;23;20047;-93
2023/02/13 10:56:39;;;;;;;0.00;0.00;;;10.80;99.90;;;;;;6204320;23;20413;-94
2023/02/13 10:59:32;;;;;;;0.00;0.00;;;10.90;99.90;;;;;;6207093;23;20016;-94
2023/02/13 11:02:18;;;;;;;0.00;0.00;;;11.00;99.90;;;;;;6203910;23;20252;-94
2023/02/13 11:04:44;;;;;;;0.00;0.00;;;;;;;;;;6206616;23;20508;-94
2023/02/13 11:07:15;;;;;;;0.00;0.00;;;11.00;99.90;;;;;;6232030;23;20012;-94
2023/02/13 11:09:44;;;;;;;0.00;0.00;;;10.90;99.90;;;;;;6204326;23;20441;-92
2023/02/13 11:12:28;;;;;;;0.08;0.08;;;11.00;99.90;;;;;;6205110;23;20004;-92
2023/02/13 11:14:56;;;;;;;0.00;0.00;;;10.90;99.90;;;;;;6205220;23;19996;-94
2023/02/13 11:17:23;;;;;;;0.00;0.00;;;10.60;99.90;;;;;;6223066;23;20039;-96
2023/02/13 11:19:55;;;;;;;0.00;0.00;;;11.10;99.90;;;;;;6204654;23;20012;-94
2023/02/13 11:22:31;;;;;;;0.00;0.00;;;11.20;99.90;;;;;;6202595;23;20007;-93
2023/02/13 11:25:16;;;;;;;0.00;0.00;;;11.40;99.90;;;;;;6204207;23;20011;-94
2023/02/13 11:27:43;;;;;;;0.00;0.00;;;;;;;;;;6203772;23;20009;-94
2023/02/13 11:30:33;;;;;;;0.00;0.00;;;11.30;99.90;;;;;;6203194;23;20008;-92
2023/02/13 11:32:59;;;;;;;0.00;0.00;;;;;;;;;;6201170;23;20011;-92
2023/02/13 11:35:34;;;;;;;0.00;0.00;;;11.00;99.90;;;;;;6223653;23;19997;-93
2023/02/13 11:38:15;;;;;;;0.05;0.05;;;10.10;99.90;;;;;;6200839;23;20393;-93
2023/02/13 11:40:43;;;;;;;0.00;0.00;;;11.10;99.90;;;;;;6201660;23;20023;-94
2023/02/13 11:43:30;;;;;;;0.00;0.00;;;11.30;99.90;;;;;;6200773;23;20020;-91
2023/02/13 11:46:10;;;;;;;0.00;0.00;;;10.90;99.90;;;;;;6205536;23;20012;-94
2023/02/13 11:48:36;;;;;;;0.00;0.00;;;;;;;;;;6205124;23;20005;-95
2023/02/13 11:51:02;;;;;;;0.00;0.00;;;;;;;;;;6226879;23;20007;-92
2023/02/13 11:53:37;;;;;;;0.00;0.00;;;11.50;99.90;;;;;;6227198;23;20000;-93
2023/02/13 11:56:09;;;;;;;0.00;0.00;;;11.30;99.90;;;;;;6203369;23;20005;-93
2023/02/13 11:58:35;;;;;;;0.00;0.00;;;;;;;;;;6201401;23;20015;-94
2023/02/13 12:01:23;;;;;;;0.00;0.00;;;11.50;99.90;;;;;;6226571;23;19997;-94
2023/02/13 12:04:14;;;;;;;0.00;0.00;;;11.60;99.90;;;;;;6200329;23;20004;-93
2023/02/13 12:06:41;;;;;;;0.00;0.00;;;;;;;;;;6200187;23;20004;-93
2023/02/13 12:09:14;;;;;;;0.00;0.00;;;11.40;99.90;;;;;;6200939;23;20027;-93
2023/02/13 12:11:46;;;;;;;0.00;0.00;;;11.40;99.90;;;;;;6201142;23;20096;-93
2023/02/13 12:14:17;;;;;;;0.00;0.00;;;11.60;99.90;;;;;;6201086;23;20001;-92
2023/02/13 12:16:49;;;;;;;0.00;0.00;;;11.40;99.90;;;;;;6201560;23;20007;-94
2023/02/13 12:19:38;;;;;;;0.00;0.00;;;10.70;99.90;;;;;;6200632;23;20019;-93
2023/02/13 12:22:28;;;;;;;0.00;0.00;;;11.40;99.90;;;;;;6201343;23;20031;-94
2023/02/13 12:25:05;;;;;;;0.00;0.00;;;11.40;99.90;;;;;;6201376;23;20009;-94
2023/02/13 12:27:53;;;;;;;0.00;0.00;;;11.60;99.90;;;;;;6202173;23;20185;-94
2023/02/13 12:30:35;;;;;;;0.00;0.00;;;11.30;99.90;;;;;;6200848;23;20011;-94
2023/02/13 12:33:15;;;;;;;0.00;0.00;;;11.20;99.90;;;;;;6201105;23;20005;-95
2023/02/13 12:36:08;;;;;;;0.00;0.00;;;11.40;99.90;;;;;;6200410;23;20005;-94
2023/02/13 12:38:52;;;;;;;0.00;0.00;;;11.30;99.90;;;;;;6201233;23;20020;-93
2023/02/13 12:41:19;;;;;;;0.00;0.00;;;11.50;99.90;;;;;;6201108;23;20007;-93
2023/02/13 12:44:11;;;;;;;0.00;0.00;;;11.40;99.90;;;;;;6201357;23;20426;-93
2023/02/13 12:46:55;;;;;;;0.00;0.00;;;11.50;99.90;;;;;;6199868;23;20028;-93
2023/02/13 12:49:35;;;;;;;0.00;0.00;;;11.60;99.90;;;;;;6196284;23;20004;-93
2023/02/13 12:52:32;;;;;;;0.00;0.00;;;11.60;99.90;;;;;;6198042;23;20001;-94
2023/02/13 12:55:36;;;;;;;0.00;0.00;;;11.20;99.90;;;;;;6200163;23;20286;-92
2023/02/13 12:58:34;;;;;;;0.00;0.00;;;11.60;99.90;;;;;;6194250;23;20219;-94
2023/02/13 13:01:19;;;;;;;0.00;0.00;;;11.50;99.90;;;;;;6223367;23;20001;-93
2023/02/13 13:04:15;;;;;;;0.00;0.00;;;11.60;99.90;;;;;;6211241;23;20004;-94
2023/02/13 13:06:53;;;;;;;0.00;0.00;;;11.70;99.90;;;;;;6226194;23;20038;-93
2023/02/13 13:09:27;;;;;;;0.10;0.10;;;11.70;99.90;;;;;;6199726;23;20005;-94
2023/02/13 13:12:02;;;;;;;0.00;0.00;;;11.70;99.90;;;;;;6200723;23;20294;-95
2023/02/13 13:14:46;;;;;;;0.00;0.00;;;11.70;99.90;;;;;;6201821;23;20004;-93
2023/02/13 13:17:29;;;;;;;0.10;0.10;;;11.60;99.90;;;;;;6196384;23;20036;-93
2023/02/13 13:20:29;;;;;;;0.00;0.00;;;11.70;99.90;;;;;;6198146;23;20016;-94
2023/02/13 13:23:13;;;;;;;0.00;0.00;;;11.80;99.90;;;;;;6199844;23;20004;-93
2023/02/13 13:25:57;;;;;;;0.10;0.10;;;11.70;99.90;;;;;;6195312;23;20005;-92
2023/02/13 13:28:32;;;;;;;0.00;0.00;;;11.60;99.90;;;;;;6195690;23;20083;-93
2023/02/13 13:30:58;;;;;;;0.00;0.00;;;;;;;;;;6198606;23;20007;-93
2023/02/13 13:33:27;;;;;;;0.00;0.00;;;11.30;99.90;;;;;;6199593;23;20011;-92
2023/02/13 13:36:16;;;;;;;0.08;0.08;;;11.40;99.90;;;;;;6198278;23;20365;-93
2023/02/13 13:38:54;;;;;;;0.08;0.08;;;11.50;99.90;;;;;;6200146;23;20000;-93
2023/02/13 13:41:59;;;;;;;0.00;0.00;;;11.50;99.90;;;;;;6200371;23;20008;-92
2023/02/13 13:44:25;;;;;;;0.00;0.00;;;;;;;;;;6227195;23;20068;-93
2023/02/13 13:47:23;;;;;;;0.00;0.00;;;11.40;99.90;;;;;;6225620;23;20464;-93
2023/02/13 13:49:59;;;;;;;0.00;0.00;;;11.40;99.90;;;;;;6199729;23;20119;-92
2023/02/13 13:52:32;;;;;;;0.00;0.00;;;11.20;99.90;;;;;;6199897;23;20008;-93
2023/02/13 13:55:01;;;;;;;0.00;0.00;;;10.90;99.90;;;;;;6199490;23;20008;-93
2023/02/13 13:57:35;;;;;;;0.00;0.00;;;10.90;99.90;;;;;;6196010;23;20016;-93
2023/02/13 14:03:48;;;;;;;0.00;0.00;;;;;;;;;;6144359;23;20056;-92
2023/02/13 14:06:28;;;;;;;0.00;0.00;;;10.60;99.90;;;;;;6216479;23;20054;-92
2023/02/13 14:09:01;;;;;;;0.00;0.00;;;10.50;99.90;;;;;;6190704;23;20001;-92
2023/02/13 14:11:39;;;;;;;0.00;0.00;;;10.40;99.90;;;;;;6197423;23;20001;-92
2023/02/13 14:14:26;;;;;;;0.00;0.00;;;10.40;99.90;;;;;;6186407;23;20627;-92
2023/02/13 14:16:53;;;;;;;0.00;0.00;;;;;;;;;;6182409;23;20032;-93
2023/02/13 14:19:39;;;;;;;0.00;0.00;;;10.20;99.90;;;;;;6179710;23;20024;-92
2023/02/13 14:22:37;;;;;;;0.08;0.08;;;10.30;99.90;;;;;;6185933;23;20013;-92
2023/02/13 14:25:05;;;;;;;0.00;0.00;;;10.10;99.90;;;;;;6202261;23;20522;-93
2023/02/13 14:27:38;;;;;;;0.00;0.00;;;10.10;99.90;;;;;;6183928;23;20009;-93
2023/02/13 14:30:28;;;;;;;0.10;0.10;;;10.00;99.90;;;;;;6186686;23;20040;-93
2023/02/13 14:32:54;;;;;;;0.00;0.00;;;;;;;;;;6186292;23;20425;-93
2023/02/13 14:35:27;;;;;;;0.00;0.00;;;10.00;99.90;;;;;;6187734;23;20000;-91
2023/02/13 14:37:58;;;;;;;0.08;0.08;;;10.00;99.90;;;;;;6189217;23;20004;-91
2023/02/13 14:40:49;;;;;;;0.00;0.00;;;10.00;99.90;;;;;;6186100;23;20000;-93
2023/02/13 14:43:35;;;;;;;0.10;0.10;;;10.10;99.90;;;;;;6187767;23;20008;-93
2023/02/13 14:46:01;;;;;;;0.00;0.00;;;;;;;;;;6185713;23;20008;-94